sensor_id;sensor_type;location;lat;lon;timestamp;temperature;humidity
77056;SHT30;67471;44.918;8.614;2023-11-21T00:01:02;11.64;77.06
77056;SHT30;67471;44.918;8.614;2023-11-21T00:04:08;11.74;76.91
77056;SHT30;67471;44.918;8.614;2023-11-21T00:07:11;11.61;77.31
77056;SHT30;67471;44.918;8.614;2023-11-21T00:10:15;11.61;77.37
77056;SHT30;67471;44.918;8.614;2023-11-21T00:13:19;11.63;77.53
77056;SHT30;67471;44.918;8.614;2023-11-21T00:16:23;11.60;77.86
77056;SHT30;67471;44.918;8.614;2023-11-21T00:19:28;11.70;77.69
77056;SHT30;67471;44.918;8.614;2023-11-21T00:22:35;11.74;77.79
77056;SHT30;67471;44.918;8.614;2023-11-21T00:25:39;11.64;78.20
77056;SHT30;67471;44.918;8.614;2023-11-21T00:28:43;11.73;78.18
77056;SHT30;67471;44.918;8.614;2023-11-21T00:31:47;11.59;78.56
77056;SHT30;67471;44.918;8.614;2023-11-21T00:34:51;11.73;78.36
77056;SHT30;67471;44.918;8.614;2023-11-21T00:37:55;11.73;78.45
77056;SHT30;67471;44.918;8.614;2023-11-21T00:40:59;11.70;78.65
77056;SHT30;67471;44.918;8.614;2023-11-21T00:44:03;11.64;78.90
77056;SHT30;67471;44.918;8.614;2023-11-21T00:47:08;11.77;78.44
77056;SHT30;67471;44.918;8.614;2023-11-21T00:50:12;11.73;78.67
77056;SHT30;67471;44.918;8.614;2023-11-21T00:53:15;11.67;78.76
77056;SHT30;67471;44.918;8.614;2023-11-21T00:56:19;11.69;78.89
77056;SHT30;67471;44.918;8.614;2023-11-21T00:59:23;11.71;78.77
77056;SHT30;67471;44.918;8.614;2023-11-21T01:02:28;11.67;78.85
77056;SHT30;67471;44.918;8.614;2023-11-21T01:05:32;11.69;78.93
77056;SHT30;67471;44.918;8.614;2023-11-21T01:08:36;11.70;78.85
77056;SHT30;67471;44.918;8.614;2023-11-21T01:11:40;11.77;78.57
77056;SHT30;67471;44.918;8.614;2023-11-21T01:14:45;11.75;78.72
77056;SHT30;67471;44.918;8.614;2023-11-21T01:17:49;11.70;78.70
77056;SHT30;67471;44.918;8.614;2023-11-21T01:20:53;11.74;78.52
77056;SHT30;67471;44.918;8.614;2023-11-21T01:23:57;11.77;78.48
77056;SHT30;67471;44.918;8.614;2023-11-21T01:27:00;11.75;78.61
77056;SHT30;67471;44.918;8.614;2023-11-21T01:30:05;11.77;78.47
77056;SHT30;67471;44.918;8.614;2023-11-21T01:33:12;11.80;78.46
77056;SHT30;67471;44.918;8.614;2023-11-21T01:36:15;11.77;78.56
77056;SHT30;67471;44.918;8.614;2023-11-21T01:39:19;11.77;78.55
77056;SHT30;67471;44.918;8.614;2023-11-21T01:42:27;11.88;78.18
77056;SHT30;67471;44.918;8.614;2023-11-21T01:45:32;11.74;78.61
77056;SHT30;67471;44.918;8.614;2023-11-21T01:48:37;11.78;78.54
77056;SHT30;67471;44.918;8.614;2023-11-21T01:51:43;11.77;78.71
77056;SHT30;67471;44.918;8.614;2023-11-21T01:54:47;11.80;78.37
77056;SHT30;67471;44.918;8.614;2023-11-21T01:57:50;11.84;78.17
77056;SHT30;67471;44.918;8.614;2023-11-21T02:00:54;11.78;78.42
77056;SHT30;67471;44.918;8.614;2023-11-21T02:03:59;11.78;78.46
77056;SHT30;67471;44.918;8.614;2023-11-21T02:07:03;11.81;78.35
77056;SHT30;67471;44.918;8.614;2023-11-21T02:10:10;11.85;78.12
77056;SHT30;67471;44.918;8.614;2023-11-21T02:13:18;11.88;78.02
77056;SHT30;67471;44.918;8.614;2023-11-21T02:16:21;11.90;77.93
77056;SHT30;67471;44.918;8.614;2023-11-21T02:19:26;11.88;77.96
77056;SHT30;67471;44.918;8.614;2023-11-21T02:22:32;11.82;78.12
77056;SHT30;67471;44.918;8.614;2023-11-21T02:25:40;11.87;77.94
77056;SHT30;67471;44.918;8.614;2023-11-21T02:28:46;11.95;77.77
77056;SHT30;67471;44.918;8.614;2023-11-21T02:31:52;11.85;77.96
77056;SHT30;67471;44.918;8.614;2023-11-21T02:34:58;11.82;78.05
77056;SHT30;67471;44.918;8.614;2023-11-21T02:38:06;11.84;77.98
77056;SHT30;67471;44.918;8.614;2023-11-21T02:41:10;11.81;78.17
77056;SHT30;67471;44.918;8.614;2023-11-21T02:44:14;11.88;77.94
77056;SHT30;67471;44.918;8.614;2023-11-21T02:47:18;11.81;78.15
77056;SHT30;67471;44.918;8.614;2023-11-21T02:50:22;11.87;78.01
77056;SHT30;67471;44.918;8.614;2023-11-21T02:53:26;11.74;78.42
77056;SHT30;67471;44.918;8.614;2023-11-21T02:56:30;11.75;78.43
77056;SHT30;67471;44.918;8.614;2023-11-21T02:59:33;11.74;78.47
77056;SHT30;67471;44.918;8.614;2023-11-21T03:02:38;11.71;78.38
77056;SHT30;67471;44.918;8.614;2023-11-21T03:05:42;11.63;78.63
77056;SHT30;67471;44.918;8.614;2023-11-21T03:08:46;11.73;78.44
77056;SHT30;67471;44.918;8.614;2023-11-21T03:11:50;11.73;78.39
77056;SHT30;67471;44.918;8.614;2023-11-21T03:14:54;11.73;78.36
77056;SHT30;67471;44.918;8.614;2023-11-21T03:17:58;11.81;77.91
77056;SHT30;67471;44.918;8.614;2023-11-21T03:21:03;11.67;78.54
77056;SHT30;67471;44.918;8.614;2023-11-21T03:24:06;11.69;78.20
77056;SHT30;67471;44.918;8.614;2023-11-21T03:27:10;11.66;78.36
77056;SHT30;67471;44.918;8.614;2023-11-21T03:30:15;11.63;78.43
77056;SHT30;67471;44.918;8.614;2023-11-21T03:33:20;11.64;78.42
77056;SHT30;67471;44.918;8.614;2023-11-21T03:36:24;11.60;78.57
77056;SHT30;67471;44.918;8.614;2023-11-21T03:39:30;11.63;78.48
77056;SHT30;67471;44.918;8.614;2023-11-21T03:42:34;11.60;78.39
77056;SHT30;67471;44.918;8.614;2023-11-21T03:45:38;11.57;78.53
77056;SHT30;67471;44.918;8.614;2023-11-21T03:48:44;11.60;78.60
77056;SHT30;67471;44.918;8.614;2023-11-21T03:51:48;11.69;78.29
77056;SHT30;67471;44.918;8.614;2023-11-21T03:54:52;11.66;78.37
77056;SHT30;67471;44.918;8.614;2023-11-21T03:57:55;11.64;78.47
77056;SHT30;67471;44.918;8.614;2023-11-21T04:01:00;11.71;78.00
77056;SHT30;67471;44.918;8.614;2023-11-21T04:04:04;11.61;78.50
77056;SHT30;67471;44.918;8.614;2023-11-21T04:07:07;11.56;78.57
77056;SHT30;67471;44.918;8.614;2023-11-21T04:10:11;11.61;78.35
77056;SHT30;67471;44.918;8.614;2023-11-21T04:13:16;11.53;78.70
77056;SHT30;67471;44.918;8.614;2023-11-21T04:16:20;11.56;78.50
77056;SHT30;67471;44.918;8.614;2023-11-21T04:19:23;11.50;78.71
77056;SHT30;67471;44.918;8.614;2023-11-21T04:22:27;11.46;78.83
77056;SHT30;67471;44.918;8.614;2023-11-21T04:25:31;11.41;78.81
77056;SHT30;67471;44.918;8.614;2023-11-21T04:28:35;11.51;78.63
77056;SHT30;67471;44.918;8.614;2023-11-21T04:31:39;11.51;78.39
77056;SHT30;67471;44.918;8.614;2023-11-21T04:34:43;11.50;78.50
77056;SHT30;67471;44.918;8.614;2023-11-21T04:37:47;11.54;78.37
77056;SHT30;67471;44.918;8.614;2023-11-21T04:40:50;11.44;78.69
77056;SHT30;67471;44.918;8.614;2023-11-21T04:43:54;11.46;78.76
77056;SHT30;67471;44.918;8.614;2023-11-21T04:46:58;11.46;78.39
77056;SHT30;67471;44.918;8.614;2023-11-21T04:50:03;11.49;78.58
77056;SHT30;67471;44.918;8.614;2023-11-21T04:53:07;11.51;78.53
77056;SHT30;67471;44.918;8.614;2023-11-21T04:56:11;11.49;78.56
77056;SHT30;67471;44.918;8.614;2023-11-21T04:59:15;11.50;78.42
77056;SHT30;67471;44.918;8.614;2023-11-21T05:02:19;11.53;78.42
77056;SHT30;67471;44.918;8.614;2023-11-21T05:05:22;11.51;78.40
77056;SHT30;67471;44.918;8.614;2023-11-21T05:08:26;11.56;78.31
77056;SHT30;67471;44.918;8.614;2023-11-21T05:11:30;11.53;78.27
77056;SHT30;67471;44.918;8.614;2023-11-21T05:14:35;11.50;78.45
77056;SHT30;67471;44.918;8.614;2023-11-21T05:17:39;11.44;78.59
77056;SHT30;67471;44.918;8.614;2023-11-21T05:20:45;11.47;78.46
77056;SHT30;67471;44.918;8.614;2023-11-21T05:23:51;11.49;78.56
77056;SHT30;67471;44.918;8.614;2023-11-21T05:26:54;11.50;78.49
77056;SHT30;67471;44.918;8.614;2023-11-21T05:30:02;11.43;78.77
77056;SHT30;67471;44.918;8.614;2023-11-21T05:33:06;11.41;78.73
77056;SHT30;67471;44.918;8.614;2023-11-21T05:36:10;11.49;78.43
77056;SHT30;67471;44.918;8.614;2023-11-21T05:39:14;11.41;78.39
77056;SHT30;67471;44.918;8.614;2023-11-21T05:42:20;11.36;78.40
77056;SHT30;67471;44.918;8.614;2023-11-21T05:45:24;11.32;78.68
77056;SHT30;67471;44.918;8.614;2023-11-21T05:48:28;11.29;78.82
77056;SHT30;67471;44.918;8.614;2023-11-21T05:51:32;11.36;78.44
77056;SHT30;67471;44.918;8.614;2023-11-21T05:54:36;11.34;78.61
77056;SHT30;67471;44.918;8.614;2023-11-21T05:57:41;11.37;78.55
77056;SHT30;67471;44.918;8.614;2023-11-21T06:00:45;11.32;78.71
77056;SHT30;67471;44.918;8.614;2023-11-21T06:03:49;11.22;78.89
77056;SHT30;67471;44.918;8.614;2023-11-21T06:06:53;11.23;78.93
77056;SHT30;67471;44.918;8.614;2023-11-21T06:09:57;11.33;78.57
77056;SHT30;67471;44.918;8.614;2023-11-21T06:13:00;11.18;78.95
77056;SHT30;67471;44.918;8.614;2023-11-21T06:16:05;11.08;79.45
77056;SHT30;67471;44.918;8.614;2023-11-21T06:19:09;11.16;79.27
77056;SHT30;67471;44.918;8.614;2023-11-21T06:22:14;11.16;79.35
77056;SHT30;67471;44.918;8.614;2023-11-21T06:25:17;11.16;79.49
77056;SHT30;67471;44.918;8.614;2023-11-21T06:28:21;11.16;79.32
77056;SHT30;67471;44.918;8.614;2023-11-21T06:31:24;11.22;79.07
77056;SHT30;67471;44.918;8.614;2023-11-21T06:34:28;11.19;79.08
77056;SHT30;67471;44.918;8.614;2023-11-21T06:37:32;11.20;79.11
77056;SHT30;67471;44.918;8.614;2023-11-21T06:40:36;11.19;79.34
77056;SHT30;67471;44.918;8.614;2023-11-21T06:43:40;11.19;79.28
77056;SHT30;67471;44.918;8.614;2023-11-21T06:46:44;11.24;79.09
77056;SHT30;67471;44.918;8.614;2023-11-21T06:49:48;11.11;79.14
77056;SHT30;67471;44.918;8.614;2023-11-21T06:52:52;11.22;79.14
77056;SHT30;67471;44.918;8.614;2023-11-21T06:55:57;11.22;79.06
77056;SHT30;67471;44.918;8.614;2023-11-21T06:59:03;11.27;78.93
77056;SHT30;67471;44.918;8.614;2023-11-21T07:02:09;11.24;79.13
77056;SHT30;67471;44.918;8.614;2023-11-21T07:05:12;11.18;79.22
77056;SHT30;67471;44.918;8.614;2023-11-21T07:08:17;11.27;78.96
77056;SHT30;67471;44.918;8.614;2023-11-21T07:11:21;11.36;78.56
77056;SHT30;67471;44.918;8.614;2023-11-21T07:14:26;11.33;78.56
77056;SHT30;67471;44.918;8.614;2023-11-21T07:17:30;11.39;78.51
77056;SHT30;67471;44.918;8.614;2023-11-21T07:20:35;11.41;78.31
77056;SHT30;67471;44.918;8.614;2023-11-21T07:23:38;11.29;78.55
77056;SHT30;67471;44.918;8.614;2023-11-21T07:26:42;11.23;78.95
77056;SHT30;67471;44.918;8.614;2023-11-21T07:29:46;11.19;79.03
77056;SHT30;67471;44.918;8.614;2023-11-21T07:32:51;11.26;78.63
77056;SHT30;67471;44.918;8.614;2023-11-21T07:35:55;11.32;78.51
77056;SHT30;67471;44.918;8.614;2023-11-21T07:38:59;11.37;78.10
77056;SHT30;67471;44.918;8.614;2023-11-21T07:42:03;11.40;77.79
77056;SHT30;67471;44.918;8.614;2023-11-21T07:45:08;11.33;78.03
77056;SHT30;67471;44.918;8.614;2023-11-21T07:48:12;11.47;77.76
77056;SHT30;67471;44.918;8.614;2023-11-21T07:51:16;11.40;77.90
77056;SHT30;67471;44.918;8.614;2023-11-21T07:54:20;11.49;77.46
77056;SHT30;67471;44.918;8.614;2023-11-21T07:57:24;11.44;77.36
77056;SHT30;67471;44.918;8.614;2023-11-21T08:00:29;11.43;77.44
77056;SHT30;67471;44.918;8.614;2023-11-21T08:03:34;11.43;77.39
77056;SHT30;67471;44.918;8.614;2023-11-21T08:06:38;11.47;77.54
77056;SHT30;67471;44.918;8.614;2023-11-21T08:09:42;11.49;77.26
77056;SHT30;67471;44.918;8.614;2023-11-21T08:12:47;11.57;76.98
77056;SHT30;67471;44.918;8.614;2023-11-21T08:15:55;11.57;76.86
77056;SHT30;67471;44.918;8.614;2023-11-21T08:18:59;11.59;77.03
77056;SHT30;67471;44.918;8.614;2023-11-21T08:22:04;11.53;77.09
77056;SHT30;67471;44.918;8.614;2023-11-21T08:25:08;11.56;77.06
77056;SHT30;67471;44.918;8.614;2023-11-21T08:28:12;11.59;76.84
77056;SHT30;67471;44.918;8.614;2023-11-21T08:31:24;11.57;76.74
77056;SHT30;67471;44.918;8.614;2023-11-21T08:34:28;11.70;76.59
77056;SHT30;67471;44.918;8.614;2023-11-21T08:37:31;11.66;76.42
77056;SHT30;67471;44.918;8.614;2023-11-21T08:40:36;11.70;76.29
77056;SHT30;67471;44.918;8.614;2023-11-21T08:43:40;11.75;76.02
77056;SHT30;67471;44.918;8.614;2023-11-21T08:46:44;11.71;76.04
77056;SHT30;67471;44.918;8.614;2023-11-21T08:49:51;11.82;76.03
77056;SHT30;67471;44.918;8.614;2023-11-21T08:52:56;11.85;76.12
77056;SHT30;67471;44.918;8.614;2023-11-21T08:56:01;11.97;75.33
77056;SHT30;67471;44.918;8.614;2023-11-21T08:59:05;12.17;74.85
77056;SHT30;67471;44.918;8.614;2023-11-21T09:02:09;12.12;74.93
77056;SHT30;67471;44.918;8.614;2023-11-21T09:05:13;12.02;75.19
77056;SHT30;67471;44.918;8.614;2023-11-21T09:08:17;12.15;75.06
77056;SHT30;67471;44.918;8.614;2023-11-21T09:11:21;12.25;74.58
77056;SHT30;67471;44.918;8.614;2023-11-21T09:14:25;12.39;74.45
77056;SHT30;67471;44.918;8.614;2023-11-21T09:17:29;12.52;73.98
77056;SHT30;67471;44.918;8.614;2023-11-21T09:20:33;12.73;73.33
77056;SHT30;67471;44.918;8.614;2023-11-21T09:23:36;12.77;73.08
77056;SHT30;67471;44.918;8.614;2023-11-21T09:26:40;12.94;72.68
77056;SHT30;67471;44.918;8.614;2023-11-21T09:29:44;12.97;72.70
77056;SHT30;67471;44.918;8.614;2023-11-21T09:32:49;12.94;72.90
77056;SHT30;67471;44.918;8.614;2023-11-21T09:35:53;13.12;71.71
77056;SHT30;67471;44.918;8.614;2023-11-21T09:38:57;13.32;71.01
77056;SHT30;67471;44.918;8.614;2023-11-21T09:42:11;13.07;72.41
77056;SHT30;67471;44.918;8.614;2023-11-21T09:45:20;13.08;72.01
77056;SHT30;67471;44.918;8.614;2023-11-21T09:48:24;13.06;72.43
77056;SHT30;67471;44.918;8.614;2023-11-21T09:51:29;13.07;72.71
77056;SHT30;67471;44.918;8.614;2023-11-21T09:54:36;13.11;72.70
77056;SHT30;67471;44.918;8.614;2023-11-21T09:57:40;12.99;73.24
77056;SHT30;67471;44.918;8.614;2023-11-21T10:00:46;12.90;73.20
77056;SHT30;67471;44.918;8.614;2023-11-21T10:03:50;12.94;72.88
77056;SHT30;67471;44.918;8.614;2023-11-21T10:06:54;12.72;74.10
77056;SHT30;67471;44.918;8.614;2023-11-21T10:09:59;12.94;72.88
77056;SHT30;67471;44.918;8.614;2023-11-21T10:13:06;13.08;72.52
77056;SHT30;67471;44.918;8.614;2023-11-21T10:16:11;13.31;72.00
77056;SHT30;67471;44.918;8.614;2023-11-21T10:19:18;13.49;71.60
77056;SHT30;67471;44.918;8.614;2023-11-21T10:22:24;13.68;71.26
77056;SHT30;67471;44.918;8.614;2023-11-21T10:25:27;13.65;71.00
77056;SHT30;67471;44.918;8.614;2023-11-21T10:28:35;13.54;70.96
77056;SHT30;67471;44.918;8.614;2023-11-21T10:31:41;13.86;70.37
77056;SHT30;67471;44.918;8.614;2023-11-21T10:34:55;13.44;70.96
77056;SHT30;67471;44.918;8.614;2023-11-21T10:38:02;13.66;70.32
77056;SHT30;67471;44.918;8.614;2023-11-21T10:41:11;13.40;70.72
77056;SHT30;67471;44.918;8.614;2023-11-21T10:44:16;13.59;70.50
77056;SHT30;67471;44.918;8.614;2023-11-21T10:47:23;13.62;70.64
77056;SHT30;67471;44.918;8.614;2023-11-21T10:50:27;13.66;70.64
77056;SHT30;67471;44.918;8.614;2023-11-21T10:53:31;13.66;70.70
77056;SHT30;67471;44.918;8.614;2023-11-21T10:56:36;13.62;70.82
77056;SHT30;67471;44.918;8.614;2023-11-21T10:59:46;13.61;70.42
77056;SHT30;67471;44.918;8.614;2023-11-21T11:02:52;13.55;70.62
77056;SHT30;67471;44.918;8.614;2023-11-21T11:05:57;13.38;71.29
77056;SHT30;67471;44.918;8.614;2023-11-21T11:09:01;13.20;72.15
77056;SHT30;67471;44.918;8.614;2023-11-21T11:12:06;13.32;71.72
77056;SHT30;67471;44.918;8.614;2023-11-21T11:15:10;13.34;71.63
77056;SHT30;67471;44.918;8.614;2023-11-21T11:18:15;13.22;71.87
77056;SHT30;67471;44.918;8.614;2023-11-21T11:21:23;13.27;71.76
77056;SHT30;67471;44.918;8.614;2023-11-21T11:27:54;13.11;71.78
77056;SHT30;67471;44.918;8.614;2023-11-21T11:31:13;13.18;71.93
77056;SHT30;67471;44.918;8.614;2023-11-21T11:34:23;13.27;71.59
77056;SHT30;67471;44.918;8.614;2023-11-21T11:37:28;13.24;71.62
77056;SHT30;67471;44.918;8.614;2023-11-21T11:40:41;13.34;71.34
77056;SHT30;67471;44.918;8.614;2023-11-21T11:43:48;13.48;70.66
77056;SHT30;67471;44.918;8.614;2023-11-21T11:46:52;13.08;72.22
77056;SHT30;67471;44.918;8.614;2023-11-21T11:50:00;13.35;71.70
77056;SHT30;67471;44.918;8.614;2023-11-21T11:53:16;13.24;72.35
77056;SHT30;67471;44.918;8.614;2023-11-21T11:56:31;13.76;70.57
77056;SHT30;67471;44.918;8.614;2023-11-21T12:03:15;13.61;70.56
77056;SHT30;67471;44.918;8.614;2023-11-21T12:06:33;13.62;70.92
77056;SHT30;67471;44.918;8.614;2023-11-21T12:09:37;13.73;70.42
77056;SHT30;67471;44.918;8.614;2023-11-21T12:16:00;14.02;68.90
77056;SHT30;67471;44.918;8.614;2023-11-21T12:19:04;14.23;67.71
77056;SHT30;67471;44.918;8.614;2023-11-21T12:22:08;14.41;66.78
77056;SHT30;67471;44.918;8.614;2023-11-21T12:25:12;14.87;64.70
77056;SHT30;67471;44.918;8.614;2023-11-21T12:28:19;15.01;63.23
77056;SHT30;67471;44.918;8.614;2023-11-21T12:31:23;15.36;62.44
77056;SHT30;67471;44.918;8.614;2023-11-21T12:34:27;15.38;62.50
77056;SHT30;67471;44.918;8.614;2023-11-21T12:37:30;15.63;61.17
77056;SHT30;67471;44.918;8.614;2023-11-21T12:40:35;15.61;60.83
77056;SHT30;67471;44.918;8.614;2023-11-21T12:43:39;15.61;60.87
77056;SHT30;67471;44.918;8.614;2023-11-21T12:46:43;15.56;60.95
77056;SHT30;67471;44.918;8.614;2023-11-21T12:49:49;15.87;60.47
77056;SHT30;67471;44.918;8.614;2023-11-21T12:52:53;15.79;60.53
77056;SHT30;67471;44.918;8.614;2023-11-21T12:55:59;16.02;59.74
77056;SHT30;67471;44.918;8.614;2023-11-21T12:59:04;15.76;60.45
77056;SHT30;67471;44.918;8.614;2023-11-21T13:02:08;15.73;60.88
77056;SHT30;67471;44.918;8.614;2023-11-21T13:05:13;15.64;60.96
77056;SHT30;67471;44.918;8.614;2023-11-21T13:08:25;15.59;60.67
77056;SHT30;67471;44.918;8.614;2023-11-21T13:11:29;15.35;61.99
77056;SHT30;67471;44.918;8.614;2023-11-21T13:14:36;15.23;62.26
77056;SHT30;67471;44.918;8.614;2023-11-21T13:17:40;14.95;62.97
77056;SHT30;67471;44.918;8.614;2023-11-21T13:20:44;14.50;64.00
77056;SHT30;67471;44.918;8.614;2023-11-21T13:23:50;14.48;64.00
77056;SHT30;67471;44.918;8.614;2023-11-21T13:26:56;14.61;63.99
77056;SHT30;67471;44.918;8.614;2023-11-21T13:30:01;14.89;63.73
77056;SHT30;67471;44.918;8.614;2023-11-21T13:33:05;15.18;63.19
77056;SHT30;67471;44.918;8.614;2023-11-21T13:36:10;15.20;63.00
77056;SHT30;67471;44.918;8.614;2023-11-21T13:39:17;15.19;62.56
77056;SHT30;67471;44.918;8.614;2023-11-21T13:42:22;15.47;62.03
77056;SHT30;67471;44.918;8.614;2023-11-21T13:45:29;15.63;61.70
77056;SHT30;67471;44.918;8.614;2023-11-21T13:48:33;15.64;61.88
77056;SHT30;67471;44.918;8.614;2023-11-21T13:51:46;15.49;61.96
77056;SHT30;67471;44.918;8.614;2023-11-21T13:54:53;15.61;61.67
77056;SHT30;67471;44.918;8.614;2023-11-21T13:57:57;15.64;61.70
77056;SHT30;67471;44.918;8.614;2023-11-21T14:01:03;15.77;60.97
77056;SHT30;67471;44.918;8.614;2023-11-21T14:04:09;15.22;61.33
77056;SHT30;67471;44.918;8.614;2023-11-21T14:07:23;15.02;62.27
77056;SHT30;67471;44.918;8.614;2023-11-21T14:10:36;15.11;61.97
77056;SHT30;67471;44.918;8.614;2023-11-21T14:14:00;15.02;62.58
77056;SHT30;67471;44.918;8.614;2023-11-21T14:17:05;15.19;61.92
77056;SHT30;67471;44.918;8.614;2023-11-21T14:20:10;15.28;61.61
77056;SHT30;67471;44.918;8.614;2023-11-21T14:23:18;15.05;62.77
77056;SHT30;67471;44.918;8.614;2023-11-21T14:26:23;14.78;63.32
77056;SHT30;67471;44.918;8.614;2023-11-21T14:29:28;14.20;64.92
77056;SHT30;67471;44.918;8.614;2023-11-21T14:32:33;14.21;65.42
77056;SHT30;67471;44.918;8.614;2023-11-21T14:35:37;14.19;65.46
77056;SHT30;67471;44.918;8.614;2023-11-21T14:38:41;14.02;65.76
77056;SHT30;67471;44.918;8.614;2023-11-21T14:41:46;13.93;66.20
77056;SHT30;67471;44.918;8.614;2023-11-21T14:44:49;13.68;67.46
77056;SHT30;67471;44.918;8.614;2023-11-21T14:47:55;13.76;67.75
77056;SHT30;67471;44.918;8.614;2023-11-21T14:51:19;13.87;67.84
77056;SHT30;67471;44.918;8.614;2023-11-21T14:54:27;13.44;69.46
77056;SHT30;67471;44.918;8.614;2023-11-21T14:57:43;13.58;68.96
77056;SHT30;67471;44.918;8.614;2023-11-21T15:00:56;13.90;68.12
77056;SHT30;67471;44.918;8.614;2023-11-21T15:04:01;13.72;68.68
77056;SHT30;67471;44.918;8.614;2023-11-21T15:07:06;13.73;68.35
77056;SHT30;67471;44.918;8.614;2023-11-21T15:10:10;13.41;69.56
77056;SHT30;67471;44.918;8.614;2023-11-21T15:13:18;13.55;69.06
77056;SHT30;67471;44.918;8.614;2023-11-21T15:16:22;13.45;69.52
77056;SHT30;67471;44.918;8.614;2023-11-21T15:19:26;13.55;69.13
77056;SHT30;67471;44.918;8.614;2023-11-21T15:22:31;13.49;69.41
77056;SHT30;67471;44.918;8.614;2023-11-21T15:25:35;13.48;69.63
77056;SHT30;67471;44.918;8.614;2023-11-21T15:28:39;13.57;69.25
77056;SHT30;67471;44.918;8.614;2023-11-21T15:31:43;13.57;69.32
77056;SHT30;67471;44.918;8.614;2023-11-21T15:34:52;13.31;70.12
77056;SHT30;67471;44.918;8.614;2023-11-21T15:37:56;13.17;70.83
77056;SHT30;67471;44.918;8.614;2023-11-21T15:41:02;13.22;70.55
77056;SHT30;67471;44.918;8.614;2023-11-21T15:44:07;13.35;70.27
77056;SHT30;67471;44.918;8.614;2023-11-21T15:47:13;13.32;70.31
77056;SHT30;67471;44.918;8.614;2023-11-21T15:50:17;13.32;70.28
77056;SHT30;67471;44.918;8.614;2023-11-21T15:53:20;13.27;70.57
77056;SHT30;67471;44.918;8.614;2023-11-21T15:56:24;13.21;70.73
77056;SHT30;67471;44.918;8.614;2023-11-21T15:59:28;13.15;71.12
77056;SHT30;67471;44.918;8.614;2023-11-21T16:02:34;13.08;71.31
77056;SHT30;67471;44.918;8.614;2023-11-21T16:05:40;13.20;71.18
77056;SHT30;67471;44.918;8.614;2023-11-21T16:08:43;13.04;71.55
77056;SHT30;67471;44.918;8.614;2023-11-21T16:11:48;12.87;71.98
77056;SHT30;67471;44.918;8.614;2023-11-21T16:14:54;12.91;72.20
77056;SHT30;67471;44.918;8.614;2023-11-21T16:17:58;12.84;72.32
77056;SHT30;67471;44.918;8.614;2023-11-21T16:21:02;12.80;72.42
77056;SHT30;67471;44.918;8.614;2023-11-21T16:24:06;12.76;72.65
77056;SHT30;67471;44.918;8.614;2023-11-21T16:27:10;12.80;72.63
77056;SHT30;67471;44.918;8.614;2023-11-21T16:30:14;12.66;72.91
77056;SHT30;67471;44.918;8.614;2023-11-21T16:33:18;12.59;73.15
77056;SHT30;67471;44.918;8.614;2023-11-21T16:36:22;12.59;72.95
77056;SHT30;67471;44.918;8.614;2023-11-21T16:39:26;12.57;73.07
77056;SHT30;67471;44.918;8.614;2023-11-21T16:42:31;12.56;73.19
77056;SHT30;67471;44.918;8.614;2023-11-21T16:45:36;12.59;73.09
77056;SHT30;67471;44.918;8.614;2023-11-21T16:48:40;12.49;73.27
77056;SHT30;67471;44.918;8.614;2023-11-21T16:51:47;12.36;73.67
77056;SHT30;67471;44.918;8.614;2023-11-21T16:54:51;12.39;73.51
77056;SHT30;67471;44.918;8.614;2023-11-21T16:57:55;12.39;73.54
77056;SHT30;67471;44.918;8.614;2023-11-21T17:00:59;12.35;73.81
77056;SHT30;67471;44.918;8.614;2023-11-21T17:04:03;12.35;73.65
77056;SHT30;67471;44.918;8.614;2023-11-21T17:07:07;12.32;73.82
77056;SHT30;67471;44.918;8.614;2023-11-21T17:10:15;12.36;73.72
77056;SHT30;67471;44.918;8.614;2023-11-21T17:13:19;12.35;73.65
77056;SHT30;67471;44.918;8.614;2023-11-21T17:16:23;12.28;74.10
77056;SHT30;67471;44.918;8.614;2023-11-21T17:19:27;12.21;74.25
77056;SHT30;67471;44.918;8.614;2023-11-21T17:22:35;12.24;74.18
77056;SHT30;67471;44.918;8.614;2023-11-21T17:25:39;12.25;73.93
77056;SHT30;67471;44.918;8.614;2023-11-21T17:28:43;12.22;74.07
77056;SHT30;67471;44.918;8.614;2023-11-21T17:31:47;12.10;74.55
77056;SHT30;67471;44.918;8.614;2023-11-21T17:34:51;12.10;74.50
77056;SHT30;67471;44.918;8.614;2023-11-21T17:37:55;12.14;74.49
77056;SHT30;67471;44.918;8.614;2023-11-21T17:40:59;12.06;74.65
77056;SHT30;67471;44.918;8.614;2023-11-21T17:44:03;11.98;74.87
77056;SHT30;67471;44.918;8.614;2023-11-21T17:47:07;11.95;74.81
77056;SHT30;67471;44.918;8.614;2023-11-21T17:50:12;11.99;74.81
77056;SHT30;67471;44.918;8.614;2023-11-21T17:53:16;11.94;74.92
77056;SHT30;67471;44.918;8.614;2023-11-21T17:56:20;11.77;75.56
77056;SHT30;67471;44.918;8.614;2023-11-21T17:59:24;11.84;75.12
77056;SHT30;67471;44.918;8.614;2023-11-21T18:02:28;11.85;75.13
77056;SHT30;67471;44.918;8.614;2023-11-21T18:05:37;11.87;75.15
77056;SHT30;67471;44.918;8.614;2023-11-21T18:08:41;11.82;75.05
77056;SHT30;67471;44.918;8.614;2023-11-21T18:11:45;11.63;75.90
77056;SHT30;67471;44.918;8.614;2023-11-21T18:14:49;11.71;75.65
77056;SHT30;67471;44.918;8.614;2023-11-21T18:17:54;11.77;75.49
77056;SHT30;67471;44.918;8.614;2023-11-21T18:20:58;11.73;75.60
77056;SHT30;67471;44.918;8.614;2023-11-21T18:24:02;11.63;75.90
77056;SHT30;67471;44.918;8.614;2023-11-21T18:27:05;11.57;76.15
77056;SHT30;67471;44.918;8.614;2023-11-21T18:30:09;11.64;76.04
77056;SHT30;67471;44.918;8.614;2023-11-21T18:33:14;11.60;76.40
77056;SHT30;67471;44.918;8.614;2023-11-21T18:36:18;11.61;76.32
77056;SHT30;67471;44.918;8.614;2023-11-21T18:39:21;11.61;76.41
77056;SHT30;67471;44.918;8.614;2023-11-21T18:42:25;11.59;76.52
77056;SHT30;67471;44.918;8.614;2023-11-21T18:45:31;11.59;76.74
77056;SHT30;67471;44.918;8.614;2023-11-21T18:48:35;11.56;76.78
77056;SHT30;67471;44.918;8.614;2023-11-21T18:51:45;11.56;76.76
77056;SHT30;67471;44.918;8.614;2023-11-21T18:54:48;11.57;76.73
77056;SHT30;67471;44.918;8.614;2023-11-21T18:57:52;11.53;76.78
77056;SHT30;67471;44.918;8.614;2023-11-21T19:00:56;11.33;77.30
77056;SHT30;67471;44.918;8.614;2023-11-21T19:04:00;11.39;77.01
77056;SHT30;67471;44.918;8.614;2023-11-21T19:07:07;11.33;77.20
77056;SHT30;67471;44.918;8.614;2023-11-21T19:10:10;11.19;77.51
77056;SHT30;67471;44.918;8.614;2023-11-21T19:13:14;11.22;77.75
77056;SHT30;67471;44.918;8.614;2023-11-21T19:16:18;11.12;77.99
77056;SHT30;67471;44.918;8.614;2023-11-21T19:19:23;11.15;77.93
77056;SHT30;67471;44.918;8.614;2023-11-21T19:22:26;11.23;77.46
77056;SHT30;67471;44.918;8.614;2023-11-21T19:25:30;11.06;77.57
77056;SHT30;67471;44.918;8.614;2023-11-21T19:28:35;11.24;77.21
77056;SHT30;67471;44.918;8.614;2023-11-21T19:31:39;11.15;77.28
77056;SHT30;67471;44.918;8.614;2023-11-21T19:34:43;11.09;77.33
77056;SHT30;67471;44.918;8.614;2023-11-21T19:37:47;10.93;77.71